sensor_id;sensor_type;location;lat;lon;timestamp;pressure;altitude;pressure_sealevel;temperature;humidity
19005;BME280;9635;52.078;8.648;2022-12-16T00:02:18;99897.97;;;-5.76;70.08
19005;BME280;9635;52.078;8.648;2022-12-16T00:07:22;99894.28;;;-5.67;69.82
19005;BME280;9635;52.078;8.648;2022-12-16T00:12:25;99885.53;;;-5.68;69.27
19005;BME280;9635;52.078;8.648;2022-12-16T00:17:28;99887.44;;;-5.74;69.56
19005;BME280;9635;52.078;8.648;2022-12-16T00:22:33;99892.84;;;-5.82;69.82
19005;BME280;9635;52.078;8.648;2022-12-16T00:27:36;99892.03;;;-5.86;70.27
19005;BME280;9635;52.078;8.648;2022-12-16T00:32:39;99885.25;;;-5.94;69.82
19005;BME280;9635;52.078;8.648;2022-12-16T00:37:45;99888.81;;;-5.97;69.70
19005;BME280;9635;52.078;8.648;2022-12-16T00:42:49;99880.09;;;-5.97;70.13
19005;BME280;9635;52.078;8.648;2022-12-16T00:47:52;99888.88;;;-6.01;69.93
19005;BME280;9635;52.078;8.648;2022-12-16T00:52:57;99885.28;;;-5.96;69.70
19005;BME280;9635;52.078;8.648;2022-12-16T00:58:00;99895.31;;;-6.18;68.83
19005;BME280;9635;52.078;8.648;2022-12-16T01:03:03;99890.91;;;-6.14;69.20
19005;BME280;9635;52.078;8.648;2022-12-16T01:08:08;99889.25;;;-6.18;69.10
19005;BME280;9635;52.078;8.648;2022-12-16T01:13:11;99898.13;;;-6.27;68.16
19005;BME280;9635;52.078;8.648;2022-12-16T01:18:15;99900.09;;;-6.38;68.16
19005;BME280;9635;52.078;8.648;2022-12-16T01:23:19;99902.66;;;-6.35;68.17
19005;BME280;9635;52.078;8.648;2022-12-16T01:28:23;99907.81;;;-6.31;68.22
19005;BME280;9635;52.078;8.648;2022-12-16T01:33:26;99906.97;;;-6.34;68.12
19005;BME280;9635;52.078;8.648;2022-12-16T01:38:32;99909.00;;;-6.48;68.15
19005;BME280;9635;52.078;8.648;2022-12-16T01:43:37;99915.94;;;-6.46;68.90
19005;BME280;9635;52.078;8.648;2022-12-16T01:48:44;99920.38;;;-6.51;69.19
19005;BME280;9635;52.078;8.648;2022-12-16T01:53:50;99916.78;;;-6.45;68.81
19005;BME280;9635;52.078;8.648;2022-12-16T01:58:56;99920.31;;;-6.48;68.36
19005;BME280;9635;52.078;8.648;2022-12-16T02:04:02;99923.97;;;-6.57;68.27
19005;BME280;9635;52.078;8.648;2022-12-16T02:09:08;99929.25;;;-6.61;67.89
19005;BME280;9635;52.078;8.648;2022-12-16T02:14:25;99924.13;;;-6.66;67.74
19005;BME280;9635;52.078;8.648;2022-12-16T02:19:55;99921.72;;;-6.77;67.36
19005;BME280;9635;52.078;8.648;2022-12-16T02:25:38;99930.34;;;-6.71;67.96
19005;BME280;9635;52.078;8.648;2022-12-16T02:31:15;99930.28;;;-6.68;68.50
19005;BME280;9635;52.078;8.648;2022-12-16T02:36:30;99919.09;;;-6.77;68.58
19005;BME280;9635;52.078;8.648;2022-12-16T02:41:42;99924.34;;;-6.78;68.27
19005;BME280;9635;52.078;8.648;2022-12-16T02:46:53;99930.22;;;-6.65;68.46
19005;BME280;9635;52.078;8.648;2022-12-16T02:51:58;99932.00;;;-6.67;68.02
19005;BME280;9635;52.078;8.648;2022-12-16T02:57:13;99935.75;;;-6.82;66.63
19005;BME280;9635;52.078;8.648;2022-12-16T03:02:24;99928.13;;;-6.96;66.66
19005;BME280;9635;52.078;8.648;2022-12-16T03:07:32;99931.75;;;-7.05;66.46
19005;BME280;9635;52.078;8.648;2022-12-16T03:12:37;99939.50;;;-7.00;66.54
19005;BME280;9635;52.078;8.648;2022-12-16T03:17:45;99933.59;;;-7.11;66.14
19005;BME280;9635;52.078;8.648;2022-12-16T03:22:53;99934.56;;;-7.18;66.16
19005;BME280;9635;52.078;8.648;2022-12-16T03:28:03;99934.66;;;-7.23;66.20
19005;BME280;9635;52.078;8.648;2022-12-16T03:33:25;99945.22;;;-7.31;66.43
19005;BME280;9635;52.078;8.648;2022-12-16T03:38:31;99955.59;;;-7.26;66.37
19005;BME280;9635;52.078;8.648;2022-12-16T03:43:37;99945.91;;;-7.20;66.14
19005;BME280;9635;52.078;8.648;2022-12-16T03:48:54;99952.03;;;-7.22;66.15
19005;BME280;9635;52.078;8.648;2022-12-16T03:54:13;99954.69;;;-7.24;66.57
19005;BME280;9635;52.078;8.648;2022-12-16T03:59:33;99956.34;;;-7.20;66.10
19005;BME280;9635;52.078;8.648;2022-12-16T04:04:40;99961.56;;;-7.20;65.99
19005;BME280;9635;52.078;8.648;2022-12-16T04:09:43;99950.22;;;-7.17;65.90
19005;BME280;9635;52.078;8.648;2022-12-16T04:14:46;99957.34;;;-7.28;65.92
19005;BME280;9635;52.078;8.648;2022-12-16T04:20:12;99969.66;;;-7.38;65.71
19005;BME280;9635;52.078;8.648;2022-12-16T04:25:35;99962.94;;;-7.54;66.35
19005;BME280;9635;52.078;8.648;2022-12-16T04:30:39;99967.91;;;-7.36;66.89
19005;BME280;9635;52.078;8.648;2022-12-16T04:35:44;99970.28;;;-7.21;66.83
19005;BME280;9635;52.078;8.648;2022-12-16T04:41:04;99972.81;;;-7.16;67.31
19005;BME280;9635;52.078;8.648;2022-12-16T04:46:25;99980.53;;;-7.08;67.07
19005;BME280;9635;52.078;8.648;2022-12-16T04:51:47;99981.44;;;-7.09;66.94
19005;BME280;9635;52.078;8.648;2022-12-16T04:57:07;99981.38;;;-7.06;67.22
19005;BME280;9635;52.078;8.648;2022-12-16T05:02:27;99990.06;;;-7.04;67.46
19005;BME280;9635;52.078;8.648;2022-12-16T05:08:04;99989.22;;;-7.05;67.51
19005;BME280;9635;52.078;8.648;2022-12-16T05:13:24;99996.19;;;-7.07;67.82
19005;BME280;9635;52.078;8.648;2022-12-16T05:18:44;100001.44;;;-7.08;67.26
19005;BME280;9635;52.078;8.648;2022-12-16T05:24:20;99999.75;;;-7.12;66.89
19005;BME280;9635;52.078;8.648;2022-12-16T05:29:40;100012.28;;;-7.37;66.04
19005;BME280;9635;52.078;8.648;2022-12-16T05:35:03;100022.84;;;-7.47;65.29
19005;BME280;9635;52.078;8.648;2022-12-16T05:40:25;100028.31;;;-7.68;64.81
19005;BME280;9635;52.078;8.648;2022-12-16T05:45:45;100041.66;;;-7.94;65.37
19005;BME280;9635;52.078;8.648;2022-12-16T05:51:06;100045.06;;;-7.88;65.60
19005;BME280;9635;52.078;8.648;2022-12-16T05:56:27;100039.81;;;-7.84;65.17
19005;BME280;9635;52.078;8.648;2022-12-16T06:01:48;100051.25;;;-7.95;64.40
19005;BME280;9635;52.078;8.648;2022-12-16T06:07:08;100061.53;;;-7.82;65.35
19005;BME280;9635;52.078;8.648;2022-12-16T06:12:29;100060.56;;;-7.74;65.01
19005;BME280;9635;52.078;8.648;2022-12-16T06:17:50;100072.88;;;-7.88;64.81
19005;BME280;9635;52.078;8.648;2022-12-16T06:23:10;100071.09;;;-7.84;64.92
19005;BME280;9635;52.078;8.648;2022-12-16T06:28:32;100078.78;;;-7.71;64.95
19005;BME280;9635;52.078;8.648;2022-12-16T06:33:52;100104.00;;;-7.71;65.11
19005;BME280;9635;52.078;8.648;2022-12-16T06:39:27;100107.38;;;-7.63;65.51
19005;BME280;9635;52.078;8.648;2022-12-16T06:44:54;100112.50;;;-7.51;65.11
19005;BME280;9635;52.078;8.648;2022-12-16T06:50:15;100120.41;;;-7.58;65.03
19005;BME280;9635;52.078;8.648;2022-12-16T06:55:35;100129.94;;;-7.57;65.10
19005;BME280;9635;52.078;8.648;2022-12-16T07:00:57;100130.75;;;-7.52;65.72
19005;BME280;9635;52.078;8.648;2022-12-16T07:06:18;100131.53;;;-7.44;65.99
19005;BME280;9635;52.078;8.648;2022-12-16T07:11:38;100140.13;;;-7.36;65.83
19005;BME280;9635;52.078;8.648;2022-12-16T07:17:00;100153.22;;;-7.39;65.62
19005;BME280;9635;52.078;8.648;2022-12-16T07:22:20;100152.47;;;-7.50;64.97
19005;BME280;9635;52.078;8.648;2022-12-16T07:27:44;100164.84;;;-7.69;64.87
19005;BME280;9635;52.078;8.648;2022-12-16T07:33:06;100178.84;;;-7.78;64.98
19005;BME280;9635;52.078;8.648;2022-12-16T07:38:26;100189.25;;;-7.75;64.81
19005;BME280;9635;52.078;8.648;2022-12-16T07:43:46;100209.19;;;-7.69;64.94
19005;BME280;9635;52.078;8.648;2022-12-16T07:49:08;100227.47;;;-7.74;64.59
19005;BME280;9635;52.078;8.648;2022-12-16T07:54:43;100224.78;;;-7.63;64.21
19005;BME280;9635;52.078;8.648;2022-12-16T08:00:04;100245.72;;;-7.68;63.77
19005;BME280;9635;52.078;8.648;2022-12-16T08:05:25;100253.41;;;-7.54;64.41
19005;BME280;9635;52.078;8.648;2022-12-16T08:10:46;100253.31;;;-6.63;67.38
19005;BME280;9635;52.078;8.648;2022-12-16T08:16:06;100262.00;;;-6.64;64.60
19005;BME280;9635;52.078;8.648;2022-12-16T08:21:28;100260.44;;;-6.11;64.13
19005;BME280;9635;52.078;8.648;2022-12-16T08:26:48;100274.09;;;-5.37;62.92
19005;BME280;9635;52.078;8.648;2022-12-16T08:32:09;100279.78;;;-5.14;61.20
19005;BME280;9635;52.078;8.648;2022-12-16T08:37:30;100280.75;;;-5.20;59.06
19005;BME280;9635;52.078;8.648;2022-12-16T08:42:51;100287.03;;;-4.82;59.82
19005;BME280;9635;52.078;8.648;2022-12-16T08:48:13;100300.50;;;-4.13;58.07
19005;BME280;9635;52.078;8.648;2022-12-16T08:53:37;100301.28;;;-3.35;56.70
19005;BME280;9635;52.078;8.648;2022-12-16T08:58:57;100302.09;;;-3.31;55.72
19005;BME280;9635;52.078;8.648;2022-12-16T09:04:17;100300.81;;;-3.51;55.86
19005;BME280;9635;52.078;8.648;2022-12-16T09:09:39;100310.72;;;-4.01;57.21
19005;BME280;9635;52.078;8.648;2022-12-16T09:14:59;100312.00;;;-4.19;59.60
19005;BME280;9635;52.078;8.648;2022-12-16T09:20:20;100314.31;;;-3.30;58.47
19005;BME280;9635;52.078;8.648;2022-12-16T09:25:41;100318.78;;;-2.36;55.80
19005;BME280;9635;52.078;8.648;2022-12-16T09:31:02;100322.63;;;-2.16;54.88
19005;BME280;9635;52.078;8.648;2022-12-16T09:36:22;100319.47;;;-3.27;57.98
19005;BME280;9635;52.078;8.648;2022-12-16T09:41:44;100332.69;;;-3.30;58.97
19005;BME280;9635;52.078;8.648;2022-12-16T09:47:18;100345.88;;;-2.96;58.77
19005;BME280;9635;52.078;8.648;2022-12-16T09:52:45;100334.03;;;-2.17;58.21
19005;BME280;9635;52.078;8.648;2022-12-16T09:58:09;100349.97;;;-1.36;55.67
19005;BME280;9635;52.078;8.648;2022-12-16T10:03:35;100345.16;;;-0.97;54.43
19005;BME280;9635;52.078;8.648;2022-12-16T10:09:01;100348.00;;;-0.53;53.48
19005;BME280;9635;52.078;8.648;2022-12-16T10:14:30;100349.03;;;-0.32;52.24
19005;BME280;9635;52.078;8.648;2022-12-16T10:19:59;100338.50;;;-1.35;54.40
19005;BME280;9635;52.078;8.648;2022-12-16T10:25:25;100354.88;;;-0.23;55.74
19005;BME280;9635;52.078;8.648;2022-12-16T10:30:49;100347.22;;;1.04;52.06
19005;BME280;9635;52.078;8.648;2022-12-16T10:36:12;100349.53;;;1.92;49.91
19005;BME280;9635;52.078;8.648;2022-12-16T10:41:35;100343.56;;;2.81;48.21
19005;BME280;9635;52.078;8.648;2022-12-16T10:46:58;100348.47;;;2.53;47.42
19005;BME280;9635;52.078;8.648;2022-12-16T10:52:18;100354.28;;;3.83;47.56
19005;BME280;9635;52.078;8.648;2022-12-16T10:57:47;100339.91;;;5.28;43.69
19005;BME280;9635;52.078;8.648;2022-12-16T11:03:19;100347.44;;;5.36;43.23
19005;BME280;9635;52.078;8.648;2022-12-16T11:08:41;100357.94;;;4.13;44.33
19005;BME280;9635;52.078;8.648;2022-12-16T11:14:14;100349.31;;;4.26;47.16
19005;BME280;9635;52.078;8.648;2022-12-16T11:19:37;100355.94;;;5.12;45.06
19005;BME280;9635;52.078;8.648;2022-12-16T11:25:05;100350.13;;;4.74;45.38
19005;BME280;9635;52.078;8.648;2022-12-16T11:30:29;100360.00;;;5.03;45.57
19005;BME280;9635;52.078;8.648;2022-12-16T11:35:52;100344.81;;;6.22;42.89
19005;BME280;9635;52.078;8.648;2022-12-16T11:41:22;100349.19;;;6.08;43.28
19005;BME280;9635;52.078;8.648;2022-12-16T11:46:44;100349.41;;;4.40;46.04
19005;BME280;9635;52.078;8.648;2022-12-16T11:52:09;100348.97;;;4.64;46.46
19005;BME280;9635;52.078;8.648;2022-12-16T11:57:43;100345.22;;;4.98;46.67
19005;BME280;9635;52.078;8.648;2022-12-16T12:03:09;100357.16;;;5.37;45.72
19005;BME280;9635;52.078;8.648;2022-12-16T12:08:38;100354.81;;;5.89;45.07
19005;BME280;9635;52.078;8.648;2022-12-16T12:14:11;100353.13;;;5.74;44.48
19005;BME280;9635;52.078;8.648;2022-12-16T12:19:39;100373.94;;;5.23;46.75
19005;BME280;9635;52.078;8.648;2022-12-16T12:25:09;100369.13;;;5.30;47.57
19005;BME280;9635;52.078;8.648;2022-12-16T12:30:32;100359.88;;;5.94;46.13
19005;BME280;9635;52.078;8.648;2022-12-16T12:36:01;100373.47;;;5.75;45.85
19005;BME280;9635;52.078;8.648;2022-12-16T12:41:27;100380.53;;;5.32;47.08
19005;BME280;9635;52.078;8.648;2022-12-16T12:46:51;100380.91;;;5.25;46.76
19005;BME280;9635;52.078;8.648;2022-12-16T12:52:21;100385.16;;;5.44;46.93
19005;BME280;9635;52.078;8.648;2022-12-16T12:57:49;100384.94;;;5.33;47.14
19005;BME280;9635;52.078;8.648;2022-12-16T13:03:15;100393.19;;;5.28;47.23
19005;BME280;9635;52.078;8.648;2022-12-16T13:08:52;100400.75;;;5.20;48.23
19005;BME280;9635;52.078;8.648;2022-12-16T13:20:35;100402.72;;;5.32;47.61
19005;BME280;9635;52.078;8.648;2022-12-16T13:26:03;100401.66;;;5.35;47.44
19005;BME280;9635;52.078;8.648;2022-12-16T13:31:24;100409.94;;;5.30;47.47
19005;BME280;9635;52.078;8.648;2022-12-16T13:36:52;100407.38;;;5.13;47.81
19005;BME280;9635;52.078;8.648;2022-12-16T13:48:35;100427.41;;;4.56;48.45
19005;BME280;9635;52.078;8.648;2022-12-16T13:53:57;100430.59;;;4.47;48.90
19005;BME280;9635;52.078;8.648;2022-12-16T13:59:20;100439.03;;;4.38;48.92
19005;BME280;9635;52.078;8.648;2022-12-16T14:04:43;100445.97;;;4.25;49.41
19005;BME280;9635;52.078;8.648;2022-12-16T14:10:22;100442.00;;;4.16;49.60
19005;BME280;9635;52.078;8.648;2022-12-16T14:15:59;100449.41;;;3.93;49.90
19005;BME280;9635;52.078;8.648;2022-12-16T14:21:26;100465.66;;;3.70;50.14
19005;BME280;9635;52.078;8.648;2022-12-16T14:26:49;100472.22;;;3.45;50.82
19005;BME280;9635;52.078;8.648;2022-12-16T14:32:26;100483.09;;;3.04;51.57
19005;BME280;9635;52.078;8.648;2022-12-16T14:37:47;100493.72;;;2.67;52.56
19005;BME280;9635;52.078;8.648;2022-12-16T14:43:12;100494.78;;;2.23;53.37
19005;BME280;9635;52.078;8.648;2022-12-16T14:48:37;100507.31;;;1.36;54.50
19005;BME280;9635;52.078;8.648;2022-12-16T14:54:14;100510.28;;;0.61;56.77
19005;BME280;9635;52.078;8.648;2022-12-16T14:59:36;100520.97;;;0.09;58.48
19005;BME280;9635;52.078;8.648;2022-12-16T15:04:57;100528.09;;;-0.19;60.00
19005;BME280;9635;52.078;8.648;2022-12-16T15:10:19;100532.59;;;-0.48;61.08
19005;BME280;9635;52.078;8.648;2022-12-16T15:15:52;100532.31;;;-0.67;62.19
19005;BME280;9635;52.078;8.648;2022-12-16T15:21:13;100551.13;;;-0.78;62.04
19005;BME280;9635;52.078;8.648;2022-12-16T15:26:34;100560.84;;;-1.08;63.34
19005;BME280;9635;52.078;8.648;2022-12-16T15:31:56;100563.66;;;-1.12;63.76
19005;BME280;9635;52.078;8.648;2022-12-16T15:37:19;100576.97;;;-1.19;64.03
19005;BME280;9635;52.078;8.648;2022-12-16T15:42:41;100583.50;;;-1.32;64.08
19005;BME280;9635;52.078;8.648;2022-12-16T15:48:13;100595.47;;;-1.50;65.13
19005;BME280;9635;52.078;8.648;2022-12-16T15:53:38;100598.94;;;-1.49;65.42
19005;BME280;9635;52.078;8.648;2022-12-16T15:59:12;100604.19;;;-1.48;64.97
19005;BME280;9635;52.078;8.648;2022-12-16T16:04:35;100605.16;;;-1.52;64.84
19005;BME280;9635;52.078;8.648;2022-12-16T16:10:06;100616.84;;;-1.62;65.14
19005;BME280;9635;52.078;8.648;2022-12-16T16:15:27;100618.81;;;-1.70;65.25
19005;BME280;9635;52.078;8.648;2022-12-16T16:20:49;100630.53;;;-1.80;65.67
19005;BME280;9635;52.078;8.648;2022-12-16T16:26:10;100628.09;;;-1.88;65.72
19005;BME280;9635;52.078;8.648;2022-12-16T16:31:37;100631.66;;;-1.89;65.92
19005;BME280;9635;52.078;8.648;2022-12-16T16:37:12;100635.47;;;-2.02;65.66
19005;BME280;9635;52.078;8.648;2022-12-16T16:42:33;100642.50;;;-2.03;66.32
19005;BME280;9635;52.078;8.648;2022-12-16T16:48:08;100647.84;;;-2.06;66.48
19005;BME280;9635;52.078;8.648;2022-12-16T16:53:31;100645.25;;;-2.08;66.54
19005;BME280;9635;52.078;8.648;2022-12-16T16:58:51;100655.88;;;-2.12;66.37
19005;BME280;9635;52.078;8.648;2022-12-16T17:04:23;100655.22;;;-2.20;66.36
19005;BME280;9635;52.078;8.648;2022-12-16T17:09:45;100667.66;;;-2.27;67.16
19005;BME280;9635;52.078;8.648;2022-12-16T17:15:16;100677.69;;;-2.44;67.92
19005;BME280;9635;52.078;8.648;2022-12-16T17:20:37;100687.47;;;-2.49;68.19
19005;BME280;9635;52.078;8.648;2022-12-16T17:25:59;100684.78;;;-2.48;68.33
19005;BME280;9635;52.078;8.648;2022-12-16T17:31:19;100698.03;;;-2.51;68.43
19005;BME280;9635;52.078;8.648;2022-12-16T17:36:39;100700.94;;;-2.65;69.01
19005;BME280;9635;52.078;8.648;2022-12-16T17:42:01;100705.34;;;-2.65;69.32
19005;BME280;9635;52.078;8.648;2022-12-16T17:47:21;100714.00;;;-2.60;68.96
19005;BME280;9635;52.078;8.648;2022-12-16T17:52:42;100723.84;;;-2.68;68.29
19005;BME280;9635;52.078;8.648;2022-12-16T17:58:03;100731.03;;;-2.78;68.47
19005;BME280;9635;52.078;8.648;2022-12-16T18:03:24;100738.97;;;-2.81;68.58
19005;BME280;9635;52.078;8.648;2022-12-16T18:08:44;100740.75;;;-2.82;68.95
19005;BME280;9635;52.078;8.648;2022-12-16T18:14:06;100752.97;;;-2.79;69.07
19005;BME280;9635;52.078;8.648;2022-12-16T18:19:26;100761.16;;;-2.94;68.79
19005;BME280;9635;52.078;8.648;2022-12-16T18:24:47;100766.59;;;-3.04;69.34
19005;BME280;9635;52.078;8.648;2022-12-16T18:30:10;100765.00;;;-3.12;70.04
19005;BME280;9635;52.078;8.648;2022-12-16T18:35:31;100778.19;;;-3.15;69.97
19005;BME280;9635;52.078;8.648;2022-12-16T18:41:00;100778.25;;;-3.19;69.79
19005;BME280;9635;52.078;8.648;2022-12-16T18:46:22;100788.25;;;-3.41;70.20
19005;BME280;9635;52.078;8.648;2022-12-16T18:51:41;100790.06;;;-3.44;70.50
19005;BME280;9635;52.078;8.648;2022-12-16T18:57:02;100809.53;;;-3.56;70.76
19005;BME280;9635;52.078;8.648;2022-12-16T19:02:24;100801.66;;;-3.57;70.97
19005;BME280;9635;52.078;8.648;2022-12-16T19:07:56;100811.47;;;-3.69;71.49
19005;BME280;9635;52.078;8.648;2022-12-16T19:13:17;100807.78;;;-3.55;71.46
19005;BME280;9635;52.078;8.648;2022-12-16T19:18:38;100812.81;;;-3.42;71.47
19005;BME280;9635;52.078;8.648;2022-12-16T19:23:58;100814.63;;;-3.45;70.39
19005;BME280;9635;52.078;8.648;2022-12-16T19:29:19;100815.66;;;-3.57;69.69
19005;BME280;9635;52.078;8.648;2022-12-16T19:34:40;100822.69;;;-3.57;69.56
19005;BME280;9635;52.078;8.648;2022-12-16T19:40:00;100825.34;;;-3.59;69.96
19005;BME280;9635;52.078;8.648;2022-12-16T19:45:21;100842.84;;;-3.59;69.56
19005;BME280;9635;52.078;8.648;2022-12-16T19:50:43;100851.78;;;-3.71;69.08
19005;BME280;9635;52.078;8.648;2022-12-16T19:56:04;100866.16;;;-3.97;68.76
19005;BME280;9635;52.078;8.648;2022-12-16T20:01:24;100863.72;;;-4.11;69.00
19005;BME280;9635;52.078;8.648;2022-12-16T20:06:46;100871.66;;;-4.18;69.35
19005;BME280;9635;52.078;8.648;2022-12-16T20:12:07;100875.06;;;-4.10;69.56
19005;BME280;9635;52.078;8.648;2022-12-16T20:17:27;100877.81;;;-4.22;69.73
19005;BME280;9635;52.078;8.648;2022-12-16T20:22:49;100887.41;;;-4.18;70.21
19005;BME280;9635;52.078;8.648;2022-12-16T20:28:10;100889.19;;;-4.20;69.84
19005;BME280;9635;52.078;8.648;2022-12-16T20:33:31;100887.41;;;-4.18;69.52
19005;BME280;9635;52.078;8.648;2022-12-16T20:38:53;100892.63;;;-4.15;68.93
19005;BME280;9635;52.078;8.648;2022-12-16T20:44:13;100891.75;;;-4.16;68.90
19005;BME280;9635;52.078;8.648;2022-12-16T20:49:33;100911.81;;;-4.10;68.79
19005;BME280;9635;52.078;8.648;2022-12-16T20:54:58;100908.31;;;-4.12;68.52
19005;BME280;9635;52.078;8.648;2022-12-16T21:00:18;100922.34;;;-4.13;68.29
19005;BME280;9635;52.078;8.648;2022-12-16T21:05:40;100920.66;;;-4.20;68.46
19005;BME280;9635;52.078;8.648;2022-12-16T21:11:02;100928.53;;;-4.19;68.40
19005;BME280;9635;52.078;8.648;2022-12-16T21:16:22;100932.88;;;-4.18;69.10
19005;BME280;9635;52.078;8.648;2022-12-16T21:21:43;100936.31;;;-4.14;69.60
19005;BME280;9635;52.078;8.648;2022-12-16T21:27:05;100939.84;;;-4.15;69.95
19005;BME280;9635;52.078;8.648;2022-12-16T21:32:26;100952.19;;;-4.22;70.05
19005;BME280;9635;52.078;8.648;2022-12-16T21:37:49;100954.16;;;-4.44;70.55
19005;BME280;9635;52.078;8.648;2022-12-16T21:43:08;100964.47;;;-4.27;70.84
19005;BME280;9635;52.078;8.648;2022-12-16T21:48:28;100971.53;;;-4.32;70.27
19005;BME280;9635;52.078;8.648;2022-12-16T21:53:52;100976.84;;;-4.40;69.50
19005;BME280;9635;52.078;8.648;2022-12-16T21:59:14;100978.69;;;-4.51;68.68
19005;BME280;9635;52.078;8.648;2022-12-16T22:04:34;100982.16;;;-4.47;68.54
19005;BME280;9635;52.078;8.648;2022-12-16T22:09:57;100982.13;;;-4.43;68.23
19005;BME280;9635;52.078;8.648;2022-12-16T22:15:19;101000.53;;;-4.49;67.82
19005;BME280;9635;52.078;8.648;2022-12-16T22:20:39;100995.34;;;-4.55;67.99
19005;BME280;9635;52.078;8.648;2022-12-16T22:31:50;101008.44;;;-4.52;68.27
19005;BME280;9635;52.078;8.648;2022-12-16T22:37:11;101000.53;;;-4.50;68.24
19005;BME280;9635;52.078;8.648;2022-12-16T22:42:32;101004.84;;;-4.45;67.69
19005;BME280;9635;52.078;8.648;2022-12-16T22:47:54;101010.94;;;-4.38;67.49
19005;BME280;9635;52.078;8.648;2022-12-16T22:53:16;101013.47;;;-4.31;67.75
19005;BME280;9635;52.078;8.648;2022-12-16T22:58:37;101013.34;;;-4.18;67.81
19005;BME280;9635;52.078;8.648;2022-12-16T23:04:00;101014.19;;;-4.15;67.59
19005;BME280;9635;52.078;8.648;2022-12-16T23:09:21;101023.84;;;-4.18;67.56
19005;BME280;9635;52.078;8.648;2022-12-16T23:14:42;101038.69;;;-4.17;67.49
19005;BME280;9635;52.078;8.648;2022-12-16T23:20:05;101038.66;;;-4.13;67.73
19005;BME280;9635;52.078;8.648;2022-12-16T23:25:34;101043.88;;;-4.10;67.52
19005;BME280;9635;52.078;8.648;2022-12-16T23:30:57;101040.34;;;-4.07;67.50
19005;BME280;9635;52.078;8.648;2022-12-16T23:36:19;101038.72;;;-4.19;67.47
19005;BME280;9635;52.078;8.648;2022-12-16T23:41:40;101042.25;;;-4.21;67.69
19005;BME280;9635;52.078;8.648;2022-12-16T23:47:10;101037.84;;;-4.16;67.72
19005;BME280;9635;52.078;8.648;2022-12-16T23:52:32;101041.31;;;-4.16;68.01
19005;BME280;9635;52.078;8.648;2022-12-16T23:58:02;101040.38;;;-4.12;67.84
